Time;durP1;ratioP1;P1;durP2;ratioP2;P2;SDS_P1;SDS_P2;PMS_P1;PMS_P2;Temp;Humidity;BMP_temperature;BMP_pressure;BME280_temperature;BME280_humidity;BME280_pressure;Samples;Min_cycle;Max_cycle;Signal;HPM_P1;HPM_P2
2022/05/21 00:02:00;;;;;;;3.17;0.82;;;21.40;63.60;;;;;;5071980;28;20045;-58
2022/05/21 00:04:25;;;;;;;3.03;1.13;;;21.40;63.60;;;;;;5073145;28;20044;-58
2022/05/21 00:06:51;;;;;;;3.88;0.85;;;21.40;63.60;;;;;;5072232;28;20074;-58
2022/05/21 00:09:18;;;;;;;3.42;0.80;;;21.40;63.60;;;;;;5071950;28;20090;-57
2022/05/21 00:11:44;;;;;;;3.13;0.80;;;21.30;63.50;;;;;;5072424;28;20041;-58
2022/05/21 00:14:09;;;;;;;2.88;0.82;;;21.30;63.40;;;;;;5073040;28;20044;-58
2022/05/21 00:16:35;;;;;;;1.58;0.82;;;21.30;63.50;;;;;;5072280;28;20040;-58
2022/05/21 00:19:00;;;;;;;4.97;1.35;;;21.30;63.50;;;;;;5072263;28;20056;-58
2022/05/21 00:21:26;;;;;;;2.17;0.75;;;21.30;63.40;;;;;;5072765;28;20098;-58
2022/05/21 00:23:51;;;;;;;1.42;0.70;;;21.30;63.40;;;;;;5071879;28;20051;-58
2022/05/21 00:26:17;;;;;;;2.20;0.65;;;21.30;63.50;;;;;;5072718;28;20048;-57
2022/05/21 00:28:43;;;;;;;2.63;0.90;;;21.30;63.40;;;;;;5072525;28;20055;-58
2022/05/21 00:31:10;;;;;;;2.67;0.70;;;21.30;63.40;;;;;;5071925;28;20040;-58
2022/05/21 00:33:36;;;;;;;2.70;0.90;;;21.30;63.40;;;;;;5072682;28;20094;-57
2022/05/21 00:36:02;;;;;;;1.65;0.68;;;21.30;63.40;;;;;;5072451;28;20048;-57
2022/05/21 00:38:27;;;;;;;3.00;0.90;;;21.20;64.00;;;;;;5071742;28;20032;-58
2022/05/21 00:40:53;;;;;;;1.73;0.70;;;21.30;63.40;;;;;;5072282;28;20045;-58
2022/05/21 00:43:44;;;;;;;2.35;0.70;;;21.30;63.40;;;;;;5072410;28;20060;-58
2022/05/21 00:46:14;;;;;;;3.05;0.80;;;21.30;63.30;;;;;;5072447;28;20123;-58
2022/05/21 00:48:40;;;;;;;3.67;0.95;;;21.30;63.40;;;;;;5072198;28;20048;-57
2022/05/21 00:51:08;;;;;;;1.92;0.73;;;21.20;63.40;;;;;;5071578;28;20055;-59
2022/05/21 00:53:34;;;;;;;2.05;0.70;;;21.20;63.30;;;;;;5071307;28;20049;-58
2022/05/21 00:55:59;;;;;;;3.08;0.80;;;21.20;63.30;;;;;;5072190;28;20041;-58
2022/05/21 01:01:11;;;;;;;2.38;0.90;;;21.20;63.30;;;;;;5072258;28;20045;-58
2022/05/21 01:03:36;;;;;;;1.48;0.63;;;21.20;63.30;;;;;;5054571;28;20048;-58
2022/05/21 01:06:03;;;;;;;1.50;0.70;;;21.20;63.30;;;;;;5071195;28;20487;-58
2022/05/21 01:08:29;;;;;;;1.75;0.60;;;21.20;63.30;;;;;;5057024;28;20044;-57
2022/05/21 01:11:08;;;;;;;1.75;0.70;;;21.20;63.30;;;;;;5076210;28;20032;-58
2022/05/21 01:13:34;;;;;;;2.45;0.90;;;21.20;63.30;;;;;;5074456;28;20049;-57
2022/05/21 01:15:59;;;;;;;1.90;0.70;;;21.20;63.30;;;;;;5076143;28;20183;-58
2022/05/21 01:18:25;;;;;;;2.15;0.70;;;21.20;63.30;;;;;;5075926;28;20060;-58
2022/05/21 01:20:56;;;;;;;3.10;1.02;;;21.20;63.20;;;;;;5075114;28;20037;-57
2022/05/21 01:23:22;;;;;;;3.10;0.85;;;21.10;63.10;;;;;;5076252;28;20044;-57
2022/05/21 01:25:48;;;;;;;2.80;0.70;;;21.10;63.20;;;;;;5075329;28;20045;-58
2022/05/21 01:28:15;;;;;;;1.52;0.60;;;21.20;63.20;;;;;;5075007;28;20051;-58
2022/05/21 01:30:51;;;;;;;2.70;0.90;;;21.10;63.20;;;;;;5075841;28;20044;-58
2022/05/21 01:33:18;;;;;;;2.03;0.70;;;21.20;63.20;;;;;;5075234;28;20064;-57
2022/05/21 01:35:44;;;;;;;1.17;0.63;;;21.10;63.20;;;;;;5075681;28;20076;-58
2022/05/21 01:38:10;;;;;;;2.38;0.73;;;21.10;63.20;;;;;;5075972;28;20149;-58
2022/05/21 01:40:35;;;;;;;2.08;0.63;;;21.10;63.20;;;;;;5075116;28;20044;-58
2022/05/21 01:45:45;;;;;;;1.80;0.82;;;21.10;63.10;;;;;;5075467;28;20048;-58
2022/05/21 01:48:11;;;;;;;3.38;0.60;;;21.10;63.10;;;;;;5075017;28;20049;-58
2022/05/21 01:50:37;;;;;;;2.03;0.85;;;21.10;63.10;;;;;;5075584;28;20429;-58
2022/05/21 01:53:03;;;;;;;3.42;0.70;;;21.10;63.10;;;;;;5075429;28;20080;-58
2022/05/21 01:55:28;;;;;;;1.65;0.68;;;21.10;63.10;;;;;;5074880;28;20111;-57
2022/05/21 01:57:54;;;;;;;1.95;0.82;;;21.10;63.10;;;;;;5075116;28;20541;-58
2022/05/21 02:00:19;;;;;;;2.10;0.77;;;21.10;63.00;;;;;;5075523;28;20084;-58
2022/05/21 02:02:45;;;;;;;2.50;1.02;;;21.10;63.00;;;;;;5073477;28;20083;-57
2022/05/21 02:05:11;;;;;;;3.08;0.88;;;21.10;63.00;;;;;;5074861;28;20051;-58
2022/05/21 02:07:36;;;;;;;5.07;0.95;;;21.10;63.00;;;;;;5075380;28;20060;-57
2022/05/21 02:10:03;;;;;;;2.65;0.90;;;21.10;63.00;;;;;;5074022;28;20068;-58
2022/05/21 02:12:28;;;;;;;2.33;0.70;;;21.10;62.90;;;;;;5065462;28;20049;-57
2022/05/21 02:14:57;;;;;;;3.45;0.80;;;21.00;62.90;;;;;;5055016;28;20041;-57
2022/05/21 02:17:23;;;;;;;2.50;1.00;;;21.00;62.90;;;;;;5054350;28;20052;-57
2022/05/21 02:19:48;;;;;;;1.92;0.65;;;21.10;62.90;;;;;;5054843;28;20094;-58
2022/05/21 02:22:14;;;;;;;2.63;0.90;;;21.00;62.90;;;;;;5054273;28;20140;-58
2022/05/21 02:24:40;;;;;;;2.63;1.00;;;21.00;62.90;;;;;;5054447;28;20049;-58
2022/05/21 02:27:09;;;;;;;2.10;0.82;;;21.00;62.90;;;;;;5054779;28;20127;-58
2022/05/21 02:29:35;;;;;;;2.65;1.10;;;21.00;62.90;;;;;;5054282;28;20128;-58
2022/05/21 02:32:00;;;;;;;2.72;0.90;;;21.00;62.80;;;;;;5053206;28;20201;-57
2022/05/21 02:34:26;;;;;;;1.90;0.95;;;21.00;62.80;;;;;;5054911;28;20041;-58
2022/05/21 02:39:35;;;;;;;2.40;1.10;;;21.00;62.80;;;;;;5054802;28;20473;-57
2022/05/21 02:42:02;;;;;;;2.47;1.08;;;21.00;62.80;;;;;;5052168;28;20049;-58
2022/05/21 02:44:28;;;;;;;3.22;0.90;;;21.00;62.80;;;;;;5054159;28;20041;-58
2022/05/21 02:46:53;;;;;;;2.33;0.80;;;21.00;62.70;;;;;;5053460;28;20102;-57
2022/05/21 02:49:19;;;;;;;2.78;0.93;;;21.00;62.80;;;;;;5054534;28;20068;-58
2022/05/21 02:51:45;;;;;;;2.72;1.17;;;21.00;62.80;;;;;;5053753;28;20566;-58
2022/05/21 02:54:14;;;;;;;2.72;1.17;;;21.00;62.80;;;;;;5054408;28;20182;-58
2022/05/21 02:56:48;;;;;;;4.00;1.10;;;21.00;62.70;;;;;;5054290;28;20041;-58
2022/05/21 02:59:14;;;;;;;2.58;1.00;;;21.00;62.70;;;;;;5053865;28;20052;-58
2022/05/21 03:01:39;;;;;;;2.55;1.00;;;21.00;62.70;;;;;;5054212;28;20041;-58
2022/05/21 03:04:07;;;;;;;2.70;1.00;;;21.00;62.70;;;;;;5054211;28;20494;-58
2022/05/21 03:06:33;;;;;;;1.92;1.08;;;20.90;62.60;;;;;;5053646;28;20164;-58
2022/05/21 03:11:43;;;;;;;2.65;1.00;;;20.90;62.60;;;;;;5053307;28;20049;-58
2022/05/21 03:14:08;;;;;;;2.83;1.05;;;20.90;62.60;;;;;;5054206;28;20045;-58
2022/05/21 03:16:34;;;;;;;3.28;1.52;;;20.90;62.60;;;;;;5053880;28;20122;-57
2022/05/21 03:18:59;;;;;;;3.15;1.10;;;20.90;62.60;;;;;;5052799;28;20067;-58
2022/05/21 03:21:25;;;;;;;5.00;1.30;;;20.90;62.60;;;;;;5053685;28;20041;-58
2022/05/21 03:23:50;;;;;;;2.80;1.20;;;20.90;62.60;;;;;;5053893;28;20182;-58
2022/05/21 03:26:16;;;;;;;2.72;1.08;;;20.90;62.60;;;;;;5053298;28;20400;-58
2022/05/21 03:28:41;;;;;;;3.00;1.00;;;20.90;62.60;;;;;;5053791;28;20049;-58
2022/05/21 03:31:07;;;;;;;3.42;1.00;;;20.90;62.60;;;;;;5053355;28;20106;-58
2022/05/21 03:33:32;;;;;;;1.90;0.88;;;20.90;62.60;;;;;;5053136;28;20080;-58
2022/05/21 03:35:58;;;;;;;3.97;1.10;;;20.90;62.50;;;;;;5053475;28;20088;-58
2022/05/21 03:38:23;;;;;;;2.53;1.00;;;20.90;62.60;;;;;;5053672;28;20059;-58
2022/05/21 03:40:49;;;;;;;2.67;1.25;;;20.80;62.50;;;;;;5052729;28;20044;-58
2022/05/21 03:43:14;;;;;;;2.38;0.85;;;20.90;62.60;;;;;;5053710;28;20033;-58
2022/05/21 03:45:40;;;;;;;2.65;1.00;;;20.90;62.60;;;;;;5053071;28;20121;-58
2022/05/21 03:48:06;;;;;;;2.72;1.00;;;20.90;62.60;;;;;;5052902;28;20084;-58
2022/05/21 03:50:32;;;;;;;1.63;1.10;;;20.90;62.60;;;;;;5053254;28;20072;-58
2022/05/21 03:52:59;;;;;;;3.17;1.63;;;20.80;62.50;;;;;;5053243;28;20386;-58
2022/05/21 03:55:25;;;;;;;3.42;1.00;;;20.80;62.50;;;;;;5052402;28;20479;-58
2022/05/21 03:57:50;;;;;;;2.70;0.90;;;20.80;62.50;;;;;;5052989;28;20500;-58
2022/05/21 04:00:16;;;;;;;3.67;1.08;;;20.80;62.50;;;;;;5053269;28;20488;-57
2022/05/21 04:02:42;;;;;;;2.30;1.10;;;20.80;62.50;;;;;;5052199;28;20052;-58
2022/05/21 04:05:08;;;;;;;2.53;1.10;;;20.80;62.50;;;;;;5052695;28;20037;-58
2022/05/21 04:07:33;;;;;;;3.00;1.05;;;20.80;62.50;;;;;;5052136;28;20490;-58
2022/05/21 04:09:59;;;;;;;3.67;1.23;;;20.80;62.50;;;;;;5052556;28;20105;-58
2022/05/21 04:12:24;;;;;;;1.88;1.10;;;20.80;62.50;;;;;;5053256;28;20143;-58
2022/05/21 04:14:50;;;;;;;3.10;1.50;;;20.80;62.50;;;;;;5051863;28;20048;-58
2022/05/21 04:17:16;;;;;;;2.47;0.77;;;20.80;62.50;;;;;;5052910;28;20049;-58
2022/05/21 04:19:41;;;;;;;2.55;0.90;;;20.80;62.50;;;;;;5052400;28;20053;-58
2022/05/21 04:22:07;;;;;;;2.13;1.02;;;20.80;62.50;;;;;;5052270;28;20041;-58
2022/05/21 04:24:33;;;;;;;2.85;1.00;;;20.80;62.50;;;;;;5052635;28;20481;-58
2022/05/21 04:26:58;;;;;;;3.03;0.90;;;20.80;62.50;;;;;;5052529;28;20049;-58
2022/05/21 04:29:24;;;;;;;2.38;0.90;;;20.80;62.50;;;;;;5051647;28;20052;-58
2022/05/21 04:31:49;;;;;;;2.85;0.90;;;20.80;62.50;;;;;;5052407;28;20527;-58
2022/05/21 04:34:15;;;;;;;3.00;0.95;;;20.80;62.50;;;;;;5052565;28;20047;-58
2022/05/21 04:36:41;;;;;;;1.80;1.00;;;20.80;62.50;;;;;;5051877;28;20036;-58
2022/05/21 04:39:06;;;;;;;2.90;1.10;;;20.80;62.50;;;;;;5052716;28;20056;-58
2022/05/21 04:41:33;;;;;;;1.90;0.93;;;20.80;62.50;;;;;;5052167;28;20072;-58
2022/05/21 04:43:58;;;;;;;1.98;0.80;;;20.80;62.50;;;;;;5050955;28;20048;-58
2022/05/21 04:46:24;;;;;;;2.72;0.90;;;20.80;63.20;;;;;;5052568;28;20099;-57
2022/05/21 04:48:50;;;;;;;3.78;1.00;;;20.80;62.60;;;;;;5051239;28;20041;-57
2022/05/21 04:51:15;;;;;;;3.30;0.90;;;20.80;62.60;;;;;;5051698;28;20033;-57
2022/05/21 04:53:41;;;;;;;3.40;0.95;;;20.80;62.80;;;;;;5052158;28;20048;-57
2022/05/21 04:56:07;;;;;;;2.72;1.00;;;20.80;62.70;;;;;;5052428;28;20041;-57
2022/05/21 04:58:32;;;;;;;2.50;1.00;;;20.80;62.70;;;;;;5051534;28;20048;-57
2022/05/21 05:00:58;;;;;;;3.00;1.20;;;20.80;62.70;;;;;;5052276;28;20045;-57
2022/05/21 05:03:24;;;;;;;3.10;1.08;;;20.80;62.80;;;;;;5052265;28;20052;-57
2022/05/21 05:05:49;;;;;;;3.88;1.10;;;20.80;62.90;;;;;;5051490;28;20056;-57
2022/05/21 05:08:16;;;;;;;2.13;0.98;;;20.80;62.70;;;;;;5052256;28;20037;-56
2022/05/21 05:10:42;;;;;;;3.10;0.80;;;20.80;62.80;;;;;;5052027;28;20065;-57
2022/05/21 05:13:08;;;;;;;2.83;0.80;;;20.80;62.80;;;;;;5051335;28;20048;-56
2022/05/21 05:15:33;;;;;;;2.35;0.80;;;20.80;62.70;;;;;;5052161;28;20057;-56
2022/05/21 05:18:05;;;;;;;3.00;1.10;;;20.80;62.70;;;;;;5050907;28;20052;-57
2022/05/21 05:20:30;;;;;;;2.35;1.17;;;20.80;62.80;;;;;;5052414;28;20167;-56
2022/05/21 05:22:56;;;;;;;2.08;0.90;;;20.80;62.80;;;;;;5051920;28;20123;-56
2022/05/21 05:25:21;;;;;;;3.88;0.98;;;20.80;62.80;;;;;;5051580;28;20176;-56
2022/05/21 05:27:48;;;;;;;3.28;1.00;;;20.80;62.90;;;;;;5051493;28;20106;-57
2022/05/21 05:30:13;;;;;;;5.32;1.17;;;20.80;63.00;;;;;;5052068;28;20118;-57
2022/05/21 05:32:39;;;;;;;2.92;0.95;;;20.80;63.00;;;;;;5050833;28;20114;-56
2022/05/21 05:35:05;;;;;;;3.17;1.05;;;20.80;63.10;;;;;;5052208;28;20048;-57
2022/05/21 05:37:31;;;;;;;3.83;1.20;;;20.80;63.20;;;;;;5052189;28;20120;-57
2022/05/21 05:39:57;;;;;;;4.88;1.33;;;20.80;63.10;;;;;;5050984;28;20140;-56
2022/05/21 05:42:22;;;;;;;2.85;1.40;;;20.90;63.20;;;;;;5051968;28;20048;-56
2022/05/21 05:44:48;;;;;;;3.15;1.05;;;20.90;63.70;;;;;;5051852;28;20068;-57
2022/05/21 05:47:14;;;;;;;3.30;1.08;;;20.90;63.40;;;;;;5051009;28;20385;-57
2022/05/21 05:49:39;;;;;;;4.00;1.08;;;20.90;63.50;;;;;;5051641;28;20120;-57
2022/05/21 05:52:05;;;;;;;3.30;0.90;;;20.90;63.50;;;;;;5051872;28;20148;-56
2022/05/21 05:54:33;;;;;;;3.78;1.20;;;20.90;63.60;;;;;;5053732;28;20044;-56
2022/05/21 05:56:58;;;;;;;3.42;1.10;;;21.00;64.20;;;;;;5055531;28;20052;-56
2022/05/21 06:04:52;;;;;;;4.65;1.25;;;21.00;63.50;;;;;;5055239;28;20045;-56
2022/05/21 06:07:18;;;;;;;3.97;1.40;;;21.00;63.50;;;;;;5054653;28;20124;-56
2022/05/21 06:09:43;;;;;;;6.22;2.08;;;21.00;63.40;;;;;;5054041;28;20126;-56
2022/05/21 06:12:09;;;;;;;7.57;1.63;;;21.00;63.40;;;;;;5053815;28;20119;-56
2022/05/21 06:14:35;;;;;;;4.70;1.75;;;21.00;63.50;;;;;;5054689;28;20390;-57
2022/05/21 06:17:01;;;;;;;5.18;1.60;;;21.00;63.50;;;;;;5054848;28;20037;-60
2022/05/21 06:19:27;;;;;;;6.55;1.88;;;21.10;63.50;;;;;;5055262;28;20571;-57
2022/05/21 06:21:57;;;;;;;6.45;1.60;;;21.00;63.40;;;;;;5054267;28;20404;-57
2022/05/21 06:24:22;;;;;;;5.38;1.80;;;21.10;63.50;;;;;;5055065;28;20132;-57
2022/05/21 06:26:48;;;;;;;6.35;1.95;;;21.10;63.60;;;;;;5054579;28;20128;-57
2022/05/21 06:29:13;;;;;;;5.93;2.13;;;21.10;63.60;;;;;;5054354;28;20041;-57
2022/05/21 06:31:39;;;;;;;7.63;2.35;;;21.10;63.60;;;;;;5054752;28;20041;-57
2022/05/21 06:34:04;;;;;;;6.50;1.67;;;21.10;63.60;;;;;;5055013;28;20052;-57
2022/05/21 06:36:29;;;;;;;6.13;1.88;;;21.10;63.50;;;;;;5054149;28;20083;-57
2022/05/21 06:38:55;;;;;;;8.35;2.30;;;21.10;63.60;;;;;;5054595;28;20045;-57
2022/05/21 06:41:21;;;;;;;6.20;2.03;;;21.10;63.60;;;;;;5054407;28;20045;-57
2022/05/21 06:43:47;;;;;;;7.60;1.85;;;21.10;63.60;;;;;;5053500;28;20049;-57
2022/05/21 06:46:12;;;;;;;9.48;2.70;;;21.10;63.60;;;;;;5054267;28;20036;-57
2022/05/21 06:48:38;;;;;;;6.45;1.80;;;21.10;63.60;;;;;;5054276;28;20094;-56
2022/05/21 06:51:05;;;;;;;8.60;2.20;;;21.20;63.70;;;;;;5053877;28;20049;-58
2022/05/21 06:53:32;;;;;;;8.65;2.42;;;21.20;63.60;;;;;;5054621;28;20044;-56
2022/05/21 06:55:58;;;;;;;5.47;1.85;;;21.20;63.60;;;;;;5053851;28;20044;-56
2022/05/21 06:58:23;;;;;;;7.47;2.03;;;21.20;63.60;;;;;;5053632;28;20067;-56
2022/05/21 07:00:49;;;;;;;6.60;2.22;;;21.20;63.70;;;;;;5053902;28;20138;-56
2022/05/21 07:03:14;;;;;;;6.05;1.92;;;21.20;63.60;;;;;;5054175;28;20045;-57
2022/05/21 07:08:25;;;;;;;10.38;2.35;;;21.30;63.80;;;;;;5053891;28;20476;-57
2022/05/21 07:10:52;;;;;;;6.85;2.08;;;21.30;63.80;;;;;;5053145;28;20049;-57
2022/05/21 07:13:18;;;;;;;6.65;1.75;;;21.30;63.80;;;;;;5053952;28;20060;-57
2022/05/21 07:15:44;;;;;;;4.78;1.58;;;21.30;63.80;;;;;;5053689;28;20041;-56
2022/05/21 07:18:12;;;;;;;6.72;1.75;;;21.30;63.70;;;;;;5052911;28;20114;-57
2022/05/21 07:20:38;;;;;;;;;;;21.30;63.70;;;;;;5054485;28;20049;-57
2022/05/21 07:23:03;;;;;;;5.63;1.80;;;21.30;63.70;;;;;;5053427;28;19935;-57
2022/05/21 07:25:30;;;;;;;8.68;2.05;;;21.30;63.70;;;;;;5053220;28;20052;-56
2022/05/21 07:27:56;;;;;;;4.93;1.70;;;21.30;63.60;;;;;;5053496;28;20049;-57
2022/05/21 07:30:21;;;;;;;6.47;1.42;;;21.30;63.60;;;;;;5053868;28;20041;-57
2022/05/21 07:32:50;;;;;;;6.82;1.60;;;21.40;63.70;;;;;;5052526;28;20089;-59
2022/05/21 07:35:16;;;;;;;8.10;2.45;;;21.40;63.70;;;;;;5053428;28;20443;-57
2022/05/21 07:37:41;;;;;;;6.65;1.60;;;21.40;63.80;;;;;;5068494;28;20041;-57
2022/05/21 07:40:08;;;;;;;6.05;1.80;;;21.40;63.80;;;;;;5052706;28;20036;-57
2022/05/21 07:42:34;;;;;;;4.80;1.60;;;21.40;63.80;;;;;;5053204;28;20040;-57
2022/05/21 07:45:00;;;;;;;5.95;1.67;;;21.50;63.70;;;;;;5053116;28;20092;-56
2022/05/21 07:47:25;;;;;;;7.25;1.90;;;21.40;63.70;;;;;;5052621;28;20072;-57
2022/05/21 07:49:52;;;;;;;7.85;1.73;;;21.50;63.70;;;;;;5052945;28;20087;-57
2022/05/21 07:52:18;;;;;;;5.93;1.58;;;21.50;63.60;;;;;;5053446;28;20048;-57
2022/05/21 07:54:44;;;;;;;4.80;1.20;;;21.50;63.60;;;;;;5052397;28;20688;-57
2022/05/21 07:57:09;;;;;;;6.97;1.63;;;21.50;63.60;;;;;;5053367;28;20163;-57
2022/05/21 07:59:35;;;;;;;7.05;1.65;;;21.50;63.60;;;;;;5053135;28;20045;-57
2022/05/21 08:02:00;;;;;;;6.13;1.95;;;21.50;63.60;;;;;;5052272;28;20397;-57
2022/05/21 08:04:26;;;;;;;6.65;1.50;;;21.50;63.60;;;;;;5053290;28;20041;-56
2022/05/21 08:06:51;;;;;;;7.40;1.63;;;21.60;63.70;;;;;;5051832;28;20049;-57
2022/05/21 08:09:17;;;;;;;5.32;1.33;;;21.60;63.70;;;;;;5053258;28;20049;-57
2022/05/21 08:11:42;;;;;;;7.82;1.80;;;21.60;63.60;;;;;;5052872;28;20048;-57
2022/05/21 08:14:08;;;;;;;6.40;1.63;;;21.60;63.60;;;;;;5052339;28;20463;-56
2022/05/21 08:16:34;;;;;;;7.68;1.60;;;21.60;63.60;;;;;;5052710;28;20149;-56
2022/05/21 08:19:01;;;;;;;5.43;1.40;;;21.60;63.60;;;;;;5052409;28;20636;-57
2022/05/21 08:21:27;;;;;;;5.97;1.58;;;21.60;63.60;;;;;;5052173;28;20060;-57
2022/05/21 08:26:56;;;;;;;7.05;1.30;;;21.60;63.40;;;;;;5051241;28;20052;-57
2022/05/21 08:29:30;;;;;;;7.63;1.80;;;21.50;63.40;;;;;;5052050;28;20045;-57
2022/05/21 08:31:56;;;;;;;10.65;1.52;;;21.60;63.40;;;;;;5052565;28;20072;-57
2022/05/21 08:34:22;;;;;;;5.22;1.27;;;21.60;63.40;;;;;;5052930;28;20476;-57
2022/05/21 08:36:47;;;;;;;8.82;1.67;;;21.50;63.30;;;;;;5051790;28;20045;-57
2022/05/21 08:39:14;;;;;;;4.43;1.30;;;21.60;63.30;;;;;;5051023;28;20045;-57
2022/05/21 08:41:45;;;;;;;5.40;1.50;;;21.50;63.30;;;;;;5051699;28;20087;-57
2022/05/21 08:44:18;;;;;;;5.63;1.15;;;21.50;63.30;;;;;;5051332;28;20049;-57
2022/05/21 08:46:49;;;;;;;4.10;1.83;;;21.50;63.30;;;;;;5052220;28;20484;-57
2022/05/21 08:49:45;;;;;;;7.68;2.15;;;21.50;63.60;;;;;;5051551;28;20134;-57
2022/05/21 08:52:35;;;;;;;5.30;1.23;;;21.60;63.50;;;;;;5051292;28;20052;-56
2022/05/21 08:55:02;;;;;;;5.65;1.33;;;21.60;63.40;;;;;;5050985;28;20504;-57
2022/05/21 08:57:47;;;;;;;4.57;1.48;;;21.60;63.40;;;;;;5050218;28;20053;-57
2022/05/21 09:00:23;;;;;;;6.85;1.50;;;21.60;63.40;;;;;;5051335;28;20099;-56
2022/05/21 09:02:50;;;;;;;5.10;1.25;;;21.60;63.40;;;;;;5051648;28;20442;-57
2022/05/21 09:05:17;;;;;;;5.90;1.20;;;21.60;63.50;;;;;;5051562;28;20048;-56
2022/05/21 09:08:08;;;;;;;5.53;1.20;;;21.70;63.50;;;;;;5050476;28;20466;-57
2022/05/21 09:11:18;;;;;;;4.03;1.10;;;21.60;63.40;;;;;;5050192;28;20049;-57
2022/05/21 09:14:08;;;;;;;7.38;1.58;;;21.70;63.40;;;;;;5029603;28;20077;-57
2022/05/21 09:16:55;;;;;;;4.88;1.27;;;21.70;63.60;;;;;;5016001;28;20124;-56
2022/05/21 09:19:32;;;;;;;4.47;1.15;;;21.70;63.50;;;;;;5047426;28;20132;-58
2022/05/21 09:22:06;;;;;;;5.03;1.23;;;21.70;63.50;;;;;;5049777;28;20044;-56
2022/05/21 09:24:36;;;;;;;7.47;1.30;;;21.70;63.40;;;;;;5051407;28;20052;-56
2022/05/21 09:27:02;;;;;;;6.30;1.15;;;21.70;63.40;;;;;;5052020;28;20049;-57
2022/05/21 09:29:33;;;;;;;6.03;1.33;;;21.80;63.40;;;;;;5036303;28;20044;-57
2022/05/21 09:31:59;;;;;;;4.97;1.40;;;21.70;63.40;;;;;;5054583;28;20144;-56
2022/05/21 09:34:32;;;;;;;5.55;1.38;;;21.70;63.40;;;;;;5055703;28;20131;-57
2022/05/21 09:36:59;;;;;;;5.72;1.40;;;21.80;63.30;;;;;;5055624;28;20040;-57
2022/05/21 09:39:32;;;;;;;9.77;1.60;;;21.70;63.10;;;;;;5054986;28;20521;-57
2022/05/21 09:45:21;;;;;;;5.07;1.20;;;21.70;63.10;;;;;;5055285;28;20271;-57
2022/05/21 09:45:24;;;;;;;5.82;1.50;;;21.70;63.10;;;;;;5055139;28;20210;-58
2022/05/21 09:48:12;;;;;;;5.32;1.40;;;21.70;63.10;;;;;;5054807;28;20509;-57
2022/05/21 09:50:51;;;;;;;5.43;1.38;;;21.70;63.00;;;;;;5040738;28;20052;-57
2022/05/21 09:53:39;;;;;;;7.95;1.83;;;21.70;63.00;;;;;;5054376;28;20507;-56
2022/05/21 09:56:08;;;;;;;4.30;1.45;;;21.70;62.90;;;;;;5054870;28;20505;-57
2022/05/21 09:58:35;;;;;;;;;;;21.70;63.00;;;;;;5055610;28;20068;-58
2022/05/21 10:01:00;;;;;;;5.73;1.40;;;21.70;63.00;;;;;;5054150;28;19955;-57
2022/05/21 10:03:47;;;;;;;4.75;1.60;;;21.70;63.00;;;;;;5054803;28;20068;-57
2022/05/21 10:06:24;;;;;;;5.28;1.52;;;21.70;62.90;;;;;;5064894;28;20123;-56
2022/05/21 10:11:47;;;;;;;5.00;1.30;;;21.70;62.80;;;;;;5073641;28;20053;-57
2022/05/21 10:14:17;;;;;;;;;;;21.70;62.80;;;;;;5073221;28;20373;-57
2022/05/21 10:16:49;;;;;;;5.05;1.40;;;21.70;63.00;;;;;;5074625;28;19920;-56
2022/05/21 10:19:14;;;;;;;4.25;1.30;;;21.70;63.00;;;;;;5074152;28;20056;-57
2022/05/21 10:22:00;;;;;;;4.53;1.77;;;21.80;62.90;;;;;;5073509;28;20044;-56
2022/05/21 10:24:41;;;;;;;5.72;1.50;;;21.70;62.70;;;;;;5073696;28;20057;-57
2022/05/21 10:27:19;;;;;;;2.72;1.00;;;21.80;62.60;;;;;;5058845;28;20041;-57
2022/05/21 10:30:06;;;;;;;3.90;1.15;;;21.80;62.50;;;;;;5052578;28;20041;-56
2022/05/21 10:32:53;;;;;;;6.72;1.98;;;21.80;62.40;;;;;;5036905;28;20041;-56
2022/05/21 10:35:36;;;;;;;3.97;1.40;;;21.80;62.40;;;;;;5041231;28;20087;-56
2022/05/21 10:38:25;;;;;;;4.25;1.33;;;21.80;62.40;;;;;;5053853;28;20049;-56
2022/05/21 10:41:01;;;;;;;4.35;1.50;;;21.80;62.40;;;;;;5052551;28;20067;-56
2022/05/21 10:43:38;;;;;;;5.38;1.27;;;21.80;62.30;;;;;;5053316;28;20044;-57
2022/05/21 10:46:19;;;;;;;4.18;1.50;;;21.80;62.30;;;;;;5069892;28;20045;-56
2022/05/21 10:49:12;;;;;;;5.72;1.30;;;21.80;62.30;;;;;;5068413;28;20053;-56
2022/05/21 10:51:40;;;;;;;5.72;1.50;;;21.80;62.20;;;;;;5057523;28;20478;-56
2022/05/21 10:54:25;;;;;;;5.35;1.40;;;21.80;62.20;;;;;;5060822;28;20051;-56
2022/05/21 10:57:17;;;;;;;3.22;1.40;;;21.80;62.20;;;;;;5020584;28;20453;-56
2022/05/21 11:00:25;;;;;;;4.85;1.30;;;21.80;62.20;;;;;;5052643;28;20048;-57
2022/05/21 11:03:09;;;;;;;3.63;1.20;;;21.90;62.20;;;;;;5050418;28;20052;-56
2022/05/21 11:05:53;;;;;;;6.78;1.50;;;21.90;62.30;;;;;;5054046;28;20057;-56
2022/05/21 11:08:44;;;;;;;3.72;1.10;;;21.90;62.30;;;;;;5052981;28;20047;-57
2022/05/21 11:11:18;;;;;;;4.18;1.13;;;21.90;62.30;;;;;;5053184;28;20051;-56
2022/05/21 11:14:04;;;;;;;5.15;1.65;;;21.80;62.30;;;;;;5053471;28;20073;-56
2022/05/21 11:16:42;;;;;;;4.35;1.50;;;21.90;62.40;;;;;;5052680;28;20045;-56
2022/05/21 11:19:29;;;;;;;4.30;1.37;;;21.80;62.40;;;;;;5056029;28;20048;-56
2022/05/21 11:22:04;;;;;;;4.85;1.42;;;21.80;62.40;;;;;;5059880;28;20052;-56
2022/05/21 11:24:37;;;;;;;5.32;1.10;;;21.90;62.50;;;;;;5052294;28;20045;-56
2022/05/21 11:27:11;;;;;;;6.32;1.40;;;21.80;62.50;;;;;;5058077;28;20069;-56
2022/05/21 11:29:49;;;;;;;4.78;1.48;;;21.80;62.40;;;;;;5062327;28;20033;-56
2022/05/21 11:37:53;;;;;;;6.60;1.70;;;21.90;62.50;;;;;;5051048;28;20045;-56
2022/05/21 11:41:27;;;;;;;3.13;0.98;;;21.90;62.50;;;;;;5043724;28;20051;-57
2022/05/21 11:47:13;;;;;;;6.80;1.40;;;21.90;62.30;;;;;;5049141;28;20095;-56
2022/05/21 11:49:43;;;;;;;3.05;1.10;;;22.00;62.30;;;;;;5049875;28;20052;-57
2022/05/21 11:52:27;;;;;;;4.53;1.10;;;21.90;62.20;;;;;;5051293;28;20384;-56
2022/05/21 11:54:53;;;;;;;5.15;1.05;;;22.00;62.10;;;;;;5051857;28;20068;-56
2022/05/21 11:57:39;;;;;;;5.68;1.25;;;22.00;62.20;;;;;;5053138;28;20084;-56
2022/05/21 12:00:08;;;;;;;6.60;1.13;;;22.00;62.00;;;;;;5050947;28;20041;-56
2022/05/21 12:02:35;;;;;;;5.47;1.20;;;22.00;62.00;;;;;;5052684;28;20127;-57
2022/05/21 12:05:04;;;;;;;8.70;1.48;;;22.00;62.00;;;;;;5052624;28;20133;-55
2022/05/21 12:07:48;;;;;;;5.75;1.15;;;22.00;61.90;;;;;;5051977;28;20124;-56
2022/05/21 12:10:16;;;;;;;4.72;1.30;;;22.00;61.80;;;;;;5052885;28;20107;-55
2022/05/21 12:13:09;;;;;;;7.13;1.15;;;22.00;61.80;;;;;;5052225;28;20457;-55
2022/05/21 12:15:40;;;;;;;6.07;1.20;;;22.00;61.80;;;;;;5052543;28;20049;-55
2022/05/21 12:18:09;;;;;;;5.18;1.23;;;22.00;61.70;;;;;;5067872;28;20061;-56
2022/05/21 12:20:49;;;;;;;6.97;1.08;;;22.00;61.70;;;;;;5051514;28;20460;-56
2022/05/21 12:23:30;;;;;;;8.73;1.35;;;22.00;61.60;;;;;;5052585;28;20044;-55
2022/05/21 12:26:00;;;;;;;6.28;1.27;;;22.00;61.70;;;;;;5065497;28;20073;-56
2022/05/21 12:28:36;;;;;;;6.35;1.10;;;22.10;61.70;;;;;;5066710;28;20048;-56
2022/05/21 12:31:07;;;;;;;6.03;1.20;;;22.10;61.70;;;;;;5051146;28;20051;-56
2022/05/21 12:33:49;;;;;;;6.68;1.25;;;22.10;61.60;;;;;;5052788;28;20102;-55
2022/05/21 12:36:35;;;;;;;8.13;1.33;;;22.10;61.50;;;;;;5067190;28;20045;-56
2022/05/21 12:39:02;;;;;;;4.70;1.20;;;22.10;61.40;;;;;;5064290;28;20048;-55
2022/05/21 12:41:37;;;;;;;6.15;1.23;;;22.10;61.40;;;;;;5038745;28;20381;-55
2022/05/21 12:44:02;;;;;;;7.75;1.02;;;22.10;61.30;;;;;;5051278;28;20484;-56
2022/05/21 12:46:30;;;;;;;3.90;1.05;;;22.10;61.40;;;;;;5052008;28;20129;-55
2022/05/21 12:48:56;;;;;;;7.45;1.05;;;22.10;61.30;;;;;;5049590;28;20072;-56
2022/05/21 12:51:32;;;;;;;16.20;2.00;;;22.10;61.30;;;;;;5034210;28;20465;-56
2022/05/21 12:54:23;;;;;;;9.77;1.10;;;22.10;61.20;;;;;;5052371;28;20132;-56
2022/05/21 12:56:48;;;;;;;4.93;1.15;;;22.10;61.00;;;;;;5050883;28;20040;-56
2022/05/21 12:59:22;;;;;;;7.00;1.00;;;22.10;61.00;;;;;;5051651;28;20037;-56
2022/05/21 13:02:03;;;;;;;5.75;0.90;;;22.10;61.00;;;;;;5051787;28;20055;-56
2022/05/21 13:04:29;;;;;;;9.60;1.10;;;22.10;60.90;;;;;;5054239;28;20052;-56
2022/05/21 13:06:58;;;;;;;13.77;1.35;;;22.10;60.70;;;;;;5054781;28;20471;-57
2022/05/21 13:09:23;;;;;;;;;;;22.10;60.60;;;;;;5055496;28;20385;-57
2022/05/21 13:11:49;;;;;;;9.20;1.20;;;22.10;60.60;;;;;;5056089;28;19927;-58
2022/05/21 13:14:23;;;;;;;8.13;1.35;;;22.10;60.50;;;;;;5055197;28;20613;-58
2022/05/21 13:16:53;;;;;;;7.05;1.00;;;22.10;60.20;;;;;;5053688;28;20087;-57
2022/05/21 13:19:37;;;;;;;7.72;1.50;;;22.20;60.20;;;;;;5055056;28;20053;-56
2022/05/21 13:22:24;;;;;;;8.80;1.30;;;22.30;59.90;;;;;;5054668;28;20111;-56
2022/05/21 13:25:04;;;;;;;6.35;1.02;;;22.40;59.70;;;;;;5060516;28;20127;-56
2022/05/21 13:27:45;;;;;;;5.97;1.50;;;22.40;59.50;;;;;;5075471;28;20396;-56
2022/05/21 13:30:14;;;;;;;5.30;1.10;;;22.40;59.40;;;;;;5074291;28;20384;-56
2022/05/21 13:32:39;;;;;;;3.22;0.70;;;22.40;59.40;;;;;;5075451;28;20055;-56
2022/05/21 13:35:19;;;;;;;6.72;1.00;;;22.40;59.10;;;;;;5075906;28;20040;-56
2022/05/21 13:37:45;;;;;;;8.00;1.33;;;22.50;58.90;;;;;;5074589;28;20124;-56